Sausalito, CA

10:24 PM PDT on September 30, 2014 (GMT -0700)
Sausalito Yacht Club | Change Station
CLOSE
Current Station
Personal Weather Station
Location: Sausalito, CA
Elevation: 0 ft
Nearby Weather Stations

Elev 0 ft 37.86 °N, 122.48 °W | Updated 10 days ago

Clear
Clear
63 °F
Feels Like 63 °F
N
1
Wind Variable Wind from North
Gusts 1 mph

Today
High -- | Low -- °F
--% Chance of Precip.
Yesterday
High -- | Low -- °F
Precip. -- in
7:04 AM 6:54 PM
Waxing Crescent, 44% visible
Pressure 29.85 in
Visibility 10.0 miles
Clouds Clear
Dew Point 59 °F
Humidity 89%
Rainfall 0.00 in
Snow Depth 1 in , 0 in , 0 in
UV 0 out of 12
Pollen 2.80 out of 12
Air Quality Not available.
Flu Activity Not available.
METAR KOAK 010453Z 00000KT 10SM CLR 18/14 A2985 RMK AO2 SLP106 T01780139

More Conditions Fewer Conditions

Pressure 29.85 in
Visibility 10.0 miles
Clouds Clear
Dew Point 59 °F
Humidity 89%
Rainfall 0.00 in
Snow Depth 1 in , 0 in , 0 in
UV 0 out of 12
Pollen 2.80 out of 12
Air Quality Not available.
Flu Activity Not available.
METAR KOAK 010453Z 00000KT 10SM CLR 18/14 A2985 RMK AO2 SLP106 T01780139

More Conditions Fewer Conditions

10-Day Weather Forecast

Almanac

Astronomy

Sep. 30, 2014 Rise Set
Actual Time 7:04 AM PDT 6:54 PM PDT
Civil Twilight 6:38 AM PDT 7:20 PM PDT
Nautical Twilight 6:08 AM PDT 7:50 PM PDT
Astronomical Twilight 5:37 AM PDT 8:21 PM PDT
Moon 1:13 PM PDT (9/30) 11:34 PM PDT (9/30)
Length of Visible Light 12h 41m
Length of Day
11h 49m
Tomorrow will be 2m 25s shorter.
Waxing Crescent, 44% of the Moon is Illuminated
Oct 1
Waxing Crescent
Oct 1
First Quarter
Oct 8
Full
Oct 15
Last Quarter
Oct 23
New

Yesterday's Extremes

State Highs State Lows

Community

WunderPhotos

Upload Photos

1,757,857 photos uploaded!

Nearby

Snow Depth

Station Depth Elevation
Burnside Lake 1 in 8139 ft
Independence Camp 0 in 7000 ft
Summit Meadow 1 in 9122 ft
Squaw Valley 0 in 8200 ft
Heavenly Valley 0 in 8850 ft

Earthquake Activity

City Distance Mag. Time & Date
East Foothills, California 46 miles 2.6 3:34 PM PDT
2014-09-30
South Dos Palos, California 123 miles 2.7 3:08 PM PDT
2014-09-30
South Dos Palos, California 123 miles 2.5 9:18 PM PDT
2014-09-29
American Canyon, California 24 miles 2.5 12:17 AM PDT
2014-09-29
Minimum magnitude displayed is 2.5.

Coastal Water Temperatures

Place Temperature
San Francisco, CA 64.0 °F
Richmond, CA 68.0 °F
Port Chicago, CA 70.0 °F

Nearby Weather Stations